Time;durP1;ratioP1;P1;durP2;ratioP2;P2;SDS_P1;SDS_P2;PMS_P1;PMS_P2;Temp;Humidity;BMP_temperature;BMP_pressure;BME280_temperature;BME280_humidity;BME280_pressure;Samples;Min_cycle;Max_cycle;Signal;HPM_P1;HPM_P2
2022/10/18 00:00:51;;;;;;;20.10;15.68;;;17.80;99.90;;;;;;4588143;19;20038;-27
2022/10/18 00:02:42;;;;;;;18.02;15.98;;;17.80;99.90;;;;;;4587756;19;20082;-27
2022/10/18 00:04:13;;;;;;;18.10;16.13;;;17.80;99.90;;;;;;4587258;19;20019;-28
2022/10/18 00:05:45;;;;;;;17.95;16.00;;;17.80;99.90;;;;;;4589080;19;20031;-27
2022/10/18 00:07:16;;;;;;;17.30;15.30;;;17.80;99.90;;;;;;4587482;19;20022;-28
2022/10/18 00:08:47;;;;;;;17.17;15.38;;;17.80;99.90;;;;;;4588268;19;20018;-27
2022/10/18 00:10:18;;;;;;;17.77;15.73;;;17.80;99.90;;;;;;4588021;19;20018;-30
2022/10/18 00:11:50;;;;;;;18.88;15.88;;;17.80;99.90;;;;;;4588524;19;20333;-28
2022/10/18 00:13:21;;;;;;;;;;;17.80;99.90;;;;;;4588533;19;20075;-28
2022/10/18 00:14:52;;;;;;;16.90;14.70;;;17.80;99.90;;;;;;4587082;19;19918;-27
2022/10/18 00:16:23;;;;;;;17.88;15.98;;;17.80;99.90;;;;;;4588903;19;20026;-28
2022/10/18 00:17:55;;;;;;;18.35;16.27;;;17.80;99.90;;;;;;4585989;19;20027;-27
2022/10/18 00:19:26;;;;;;;17.60;14.63;;;17.80;99.90;;;;;;4587577;19;20038;-27
2022/10/18 00:20:58;;;;;;;16.88;14.88;;;17.80;99.90;;;;;;4587700;19;20030;-27
2022/10/18 00:22:29;;;;;;;18.15;15.23;;;17.80;99.90;;;;;;4588724;19;20386;-27
2022/10/18 00:24:00;;;;;;;17.73;15.85;;;17.70;99.90;;;;;;4587157;19;20082;-27
2022/10/18 00:25:31;;;;;;;18.00;15.95;;;17.70;99.90;;;;;;4587430;19;20047;-27
2022/10/18 00:27:02;;;;;;;17.73;15.15;;;17.70;99.90;;;;;;4588310;19;20601;-27
2022/10/18 00:28:34;;;;;;;16.58;14.88;;;17.70;99.90;;;;;;4586677;19;20033;-27
2022/10/18 00:30:05;;;;;;;17.92;15.60;;;17.70;99.90;;;;;;4587223;19;20014;-27
2022/10/18 00:31:37;;;;;;;17.98;15.57;;;17.70;99.90;;;;;;4587066;19;20019;-27
2022/10/18 00:33:08;;;;;;;17.02;15.23;;;17.70;99.90;;;;;;4588480;19;20027;-27
2022/10/18 00:34:39;;;;;;;18.52;15.45;;;17.70;99.90;;;;;;4586909;19;20018;-27
2022/10/18 00:36:11;;;;;;;19.42;16.23;;;17.70;99.90;;;;;;4588071;19;20025;-27
2022/10/18 00:37:42;;;;;;;18.85;15.70;;;17.70;99.90;;;;;;4586742;19;20145;-27
2022/10/18 00:39:17;;;;;;;17.80;15.90;;;17.70;99.90;;;;;;4585877;19;20042;-27
2022/10/18 00:40:49;;;;;;;17.60;15.68;;;17.70;99.90;;;;;;4587624;19;20040;-27
2022/10/18 00:42:20;;;;;;;17.55;15.15;;;17.70;99.90;;;;;;4587474;19;20014;-27
2022/10/18 00:43:55;;;;;;;17.17;15.02;;;17.70;99.90;;;;;;4586763;19;20014;-28
2022/10/18 00:45:26;;;;;;;18.35;15.77;;;17.70;99.90;;;;;;4586435;19;20018;-27
2022/10/18 00:47:08;;;;;;;20.85;15.98;;;17.70;99.90;;;;;;4584262;19;20092;-27
2022/10/18 00:48:39;;;;;;;16.80;15.00;;;17.70;99.90;;;;;;4587060;19;20010;-28
2022/10/18 00:50:10;;;;;;;22.55;15.80;;;17.70;99.90;;;;;;4585804;19;20411;-27
2022/10/18 00:51:47;;;;;;;20.60;15.65;;;17.70;99.90;;;;;;4586524;19;20086;-27
2022/10/18 00:53:20;;;;;;;16.95;14.90;;;17.70;99.90;;;;;;4586745;19;20011;-28
2022/10/18 00:54:51;;;;;;;16.45;14.68;;;17.60;99.90;;;;;;4584640;19;20550;-27
2022/10/18 00:56:22;;;;;;;20.52;16.55;;;17.60;99.90;;;;;;4584792;19;20105;-28
2022/10/18 00:57:54;;;;;;;20.45;15.20;;;17.60;99.90;;;;;;4584893;19;20015;-27
2022/10/18 00:59:25;;;;;;;17.17;15.00;;;17.60;99.90;;;;;;4584263;19;20026;-27
2022/10/18 01:00:56;;;;;;;16.95;15.15;;;17.60;99.90;;;;;;4584551;19;20497;-27
2022/10/18 01:02:27;;;;;;;17.00;15.20;;;17.60;99.90;;;;;;4585403;19;20015;-28
2022/10/18 01:03:58;;;;;;;16.77;14.98;;;17.60;99.90;;;;;;4585405;19;20018;-27
2022/10/18 01:05:30;;;;;;;20.65;17.13;;;17.60;99.90;;;;;;4584750;19;20010;-27
2022/10/18 01:07:24;;;;;;;18.77;16.25;;;17.60;99.90;;;;;;4583890;19;20504;-27
2022/10/18 01:09:19;;;;;;;17.98;15.70;;;17.60;99.90;;;;;;4584702;19;20022;-27
2022/10/18 01:11:05;;;;;;;17.55;15.07;;;17.60;99.90;;;;;;4584894;19;20109;-28
2022/10/18 01:13:00;;;;;;;18.00;15.80;;;17.60;99.90;;;;;;4584043;19;20045;-27
2022/10/18 01:16:57;;;;;;;18.77;16.17;;;17.60;99.90;;;;;;4584937;19;20058;-28
2022/10/18 01:18:55;;;;;;;17.23;15.32;;;17.60;99.90;;;;;;4584260;19;20015;-27
2022/10/18 01:20:32;;;;;;;16.80;14.90;;;17.60;99.90;;;;;;4584075;19;20089;-28
2022/10/18 01:22:21;;;;;;;20.25;16.85;;;17.60;99.90;;;;;;4585300;19;20126;-27
2022/10/18 01:24:10;;;;;;;18.55;15.50;;;17.60;99.90;;;;;;4584152;19;20019;-28
2022/10/18 01:26:12;;;;;;;19.88;16.42;;;17.60;99.90;;;;;;4585339;19;20014;-27
2022/10/18 01:27:52;;;;;;;;;;;17.60;99.90;;;;;;4588298;19;20015;-28
2022/10/18 01:29:49;;;;;;;18.83;15.85;;;17.60;99.90;;;;;;4585951;19;19974;-27
2022/10/18 01:31:21;;;;;;;20.10;16.17;;;17.60;99.90;;;;;;4584362;19;20082;-27
2022/10/18 01:32:54;;;;;;;20.00;16.90;;;17.60;99.90;;;;;;4586292;19;20022;-27
2022/10/18 01:34:25;;;;;;;20.35;17.17;;;17.60;99.90;;;;;;4585320;19;20055;-27
2022/10/18 01:35:58;;;;;;;;;;;17.60;99.90;;;;;;4586630;19;20436;-27
2022/10/18 01:37:29;;;;;;;19.58;17.45;;;17.60;99.90;;;;;;4584802;19;20462;-27
2022/10/18 01:39:04;;;;;;;21.40;17.95;;;17.60;99.90;;;;;;4586053;19;20514;-27
2022/10/18 01:40:35;;;;;;;28.83;17.67;;;17.60;99.90;;;;;;4585478;19;20029;-27
2022/10/18 01:42:08;;;;;;;19.55;16.98;;;17.60;99.90;;;;;;4585439;19;20015;-27
2022/10/18 01:43:43;;;;;;;21.25;18.95;;;17.60;99.90;;;;;;4587526;19;20463;-28
2022/10/18 01:45:15;;;;;;;21.63;18.75;;;17.60;99.90;;;;;;4584960;19;20643;-27
2022/10/18 01:46:46;;;;;;;20.15;18.08;;;17.60;99.90;;;;;;4586856;19;20014;-28
2022/10/18 01:48:17;;;;;;;25.85;19.52;;;17.60;99.90;;;;;;4586373;19;20155;-28
2022/10/18 01:49:48;;;;;;;20.38;18.17;;;17.60;99.90;;;;;;4585648;19;20041;-27
2022/10/18 01:51:24;;;;;;;19.52;17.55;;;17.60;99.90;;;;;;4585858;19;20582;-28
2022/10/18 01:52:56;;;;;;;21.00;18.85;;;17.60;99.90;;;;;;4585918;19;20393;-28
2022/10/18 01:54:33;;;;;;;21.00;18.10;;;17.60;99.90;;;;;;4585521;19;20375;-28
2022/10/18 01:56:21;;;;;;;19.52;17.42;;;17.60;99.90;;;;;;4587217;19;20018;-27
2022/10/18 01:58:06;;;;;;;19.80;17.70;;;17.60;99.90;;;;;;4584653;19;20026;-27
2022/10/18 01:59:58;;;;;;;18.55;16.52;;;17.60;99.90;;;;;;4588836;19;20019;-27
2022/10/18 02:01:29;;;;;;;;;;;17.60;99.90;;;;;;4592285;19;20015;-27
2022/10/18 02:03:23;;;;;;;21.70;18.53;;;17.60;99.90;;;;;;4591458;19;19930;-27
2022/10/18 02:05:06;;;;;;;22.33;19.42;;;17.60;99.90;;;;;;4590797;19;20014;-28
2022/10/18 02:06:39;;;;;;;20.15;17.77;;;17.60;99.90;;;;;;4591414;19;20015;-28
2022/10/18 02:08:29;;;;;;;20.08;17.98;;;17.60;99.90;;;;;;4589177;19;20496;-27
2022/10/18 02:10:10;;;;;;;22.15;19.00;;;17.60;99.90;;;;;;4590110;19;20036;-27
2022/10/18 02:11:41;;;;;;;20.58;18.40;;;17.60;99.90;;;;;;4589867;19;20489;-27
2022/10/18 02:13:15;;;;;;;20.83;18.58;;;17.60;99.90;;;;;;4588828;19;20035;-27
2022/10/18 02:14:46;;;;;;;21.60;18.50;;;17.60;99.90;;;;;;4589862;19;20093;-27
2022/10/18 02:16:41;;;;;;;23.10;19.25;;;17.60;99.90;;;;;;4588594;19;20027;-27
2022/10/18 02:18:19;;;;;;;21.83;19.38;;;17.60;99.90;;;;;;4587291;19;20093;-26
2022/10/18 02:19:52;;;;;;;19.67;17.63;;;17.60;99.90;;;;;;4589333;19;20014;-27
2022/10/18 02:21:23;;;;;;;19.98;17.88;;;17.60;99.90;;;;;;4589953;19;20023;-27
2022/10/18 02:22:55;;;;;;;21.80;19.40;;;17.60;99.90;;;;;;4588416;19;20026;-27
2022/10/18 02:24:33;;;;;;;21.88;19.55;;;17.60;99.90;;;;;;4589503;19;20035;-27
2022/10/18 02:26:04;;;;;;;22.48;19.65;;;17.60;99.90;;;;;;4589337;19;20584;-28
2022/10/18 02:27:36;;;;;;;20.75;18.55;;;17.60;99.90;;;;;;4589969;19;20045;-27
2022/10/18 02:29:07;;;;;;;22.10;19.63;;;17.60;99.90;;;;;;4588641;19;20019;-27
2022/10/18 02:31:09;;;;;;;22.98;19.80;;;17.60;99.90;;;;;;4589243;19;20031;-27
2022/10/18 02:33:04;;;;;;;21.17;18.98;;;17.60;99.90;;;;;;4589850;19;20022;-27
2022/10/18 02:34:38;;;;;;;21.13;18.90;;;17.60;99.90;;;;;;4589844;19;20789;-27
2022/10/18 02:36:17;;;;;;;22.65;19.55;;;17.60;99.90;;;;;;4589833;19;20019;-27
2022/10/18 02:37:48;;;;;;;23.27;19.85;;;17.60;99.90;;;;;;4587661;19;20515;-27
2022/10/18 02:39:44;;;;;;;21.23;19.00;;;17.60;99.90;;;;;;4588159;19;20890;-27
2022/10/18 02:41:22;;;;;;;24.25;19.67;;;17.60;99.90;;;;;;4589311;19;20018;-28
2022/10/18 02:42:55;;;;;;;21.77;18.80;;;17.60;99.90;;;;;;4588592;19;20031;-27
2022/10/18 02:44:26;;;;;;;21.58;19.27;;;17.60;99.90;;;;;;4589232;19;20022;-27
2022/10/18 02:45:57;;;;;;;23.73;20.10;;;17.60;99.90;;;;;;4589590;19;20023;-27
2022/10/18 02:47:29;;;;;;;21.92;18.90;;;17.60;99.90;;;;;;4588874;19;21566;-28
2022/10/18 02:49:00;;;;;;;21.73;19.48;;;17.60;99.90;;;;;;4590600;19;20101;-27
2022/10/18 02:50:31;;;;;;;21.20;18.95;;;17.50;99.90;;;;;;4589954;19;20042;-28
2022/10/18 02:52:02;;;;;;;22.08;19.73;;;17.50;99.90;;;;;;4590280;19;20042;-27
2022/10/18 02:53:33;;;;;;;21.23;19.02;;;17.50;99.90;;;;;;4588007;19;20524;-28
2022/10/18 02:55:05;;;;;;;21.40;19.15;;;17.60;99.90;;;;;;4591084;19;20015;-27
2022/10/18 02:56:36;;;;;;;21.55;19.25;;;17.60;99.90;;;;;;4588461;19;20015;-27
2022/10/18 02:58:07;;;;;;;21.75;19.45;;;17.50;99.90;;;;;;4588624;19;20014;-28
2022/10/18 02:59:38;;;;;;;22.38;19.80;;;17.50;99.90;;;;;;4588327;19;20015;-28
2022/10/18 03:01:09;;;;;;;22.92;19.58;;;17.60;99.90;;;;;;4590231;19;20022;-27
2022/10/18 03:02:40;;;;;;;21.65;19.33;;;17.50;99.90;;;;;;4589032;19;20030;-27
2022/10/18 03:04:11;;;;;;;22.20;19.63;;;17.50;99.90;;;;;;4587440;19;20010;-27
2022/10/18 03:05:43;;;;;;;22.38;20.00;;;17.50;99.90;;;;;;4589376;19;20010;-28
2022/10/18 03:07:14;;;;;;;23.40;19.58;;;17.50;99.90;;;;;;4585957;19;20024;-28
2022/10/18 03:08:45;;;;;;;21.55;19.08;;;17.50;99.90;;;;;;4589485;19;20070;-27
2022/10/18 03:10:16;;;;;;;21.77;19.40;;;17.50;99.90;;;;;;4587187;19;20014;-27
2022/10/18 03:11:47;;;;;;;24.60;20.13;;;17.50;99.90;;;;;;4589451;19;20658;-28
2022/10/18 03:13:18;;;;;;;21.77;19.48;;;17.50;99.90;;;;;;4587799;19;20029;-27
2022/10/18 03:14:49;;;;;;;22.25;20.05;;;17.50;99.90;;;;;;4587433;19;20018;-28
2022/10/18 03:16:20;;;;;;;23.25;19.13;;;17.50;99.90;;;;;;4587568;19;20484;-28
2022/10/18 03:17:51;;;;;;;21.05;18.85;;;17.50;99.90;;;;;;4587489;19;20018;-27
2022/10/18 03:19:23;;;;;;;20.52;18.27;;;17.50;99.90;;;;;;4589715;19;20026;-27
2022/10/18 03:20:54;;;;;;;21.52;19.23;;;17.50;99.90;;;;;;4587804;19;20022;-28
2022/10/18 03:22:26;;;;;;;21.15;18.90;;;17.50;99.90;;;;;;4588317;19;20495;-27
2022/10/18 03:23:58;;;;;;;22.42;20.02;;;17.50;99.90;;;;;;4589327;19;20019;-28
2022/10/18 03:25:29;;;;;;;20.80;18.63;;;17.50;99.90;;;;;;4588346;19;20466;-27
2022/10/18 03:27:01;;;;;;;22.17;19.40;;;17.50;99.90;;;;;;4587384;19;20026;-27
2022/10/18 03:28:32;;;;;;;25.50;21.10;;;17.50;99.90;;;;;;4587885;19;20045;-27
2022/10/18 03:30:04;;;;;;;26.85;22.10;;;17.50;99.90;;;;;;4589934;19;20053;-27
2022/10/18 03:31:35;;;;;;;25.38;21.75;;;17.50;99.90;;;;;;4589565;19;20022;-27
2022/10/18 03:33:06;;;;;;;26.35;23.17;;;17.50;99.90;;;;;;4592458;19;20019;-27
2022/10/18 03:34:38;;;;;;;22.50;19.85;;;17.50;99.90;;;;;;4592120;19;20524;-27
2022/10/18 03:36:09;;;;;;;23.00;20.58;;;17.50;99.90;;;;;;4592768;19;20348;-27
2022/10/18 03:37:40;;;;;;;23.70;20.88;;;17.50;99.90;;;;;;4589490;19;20060;-27
2022/10/18 03:39:11;;;;;;;25.38;21.42;;;17.50;99.90;;;;;;4589935;19;20022;-28
2022/10/18 03:40:42;;;;;;;23.20;20.48;;;17.50;99.90;;;;;;4592732;19;20006;-27
2022/10/18 03:42:14;;;;;;;24.13;21.50;;;17.50;99.90;;;;;;4591134;19;20022;-27
2022/10/18 03:43:45;;;;;;;23.40;20.90;;;17.50;99.90;;;;;;4592947;19;20072;-28
2022/10/18 03:45:16;;;;;;;23.80;20.92;;;17.50;99.90;;;;;;4592414;19;20034;-27
2022/10/18 03:46:48;;;;;;;;;;;17.50;99.90;;;;;;4593479;19;20015;-27
2022/10/18 03:48:19;;;;;;;23.33;19.90;;;17.50;99.90;;;;;;4590881;19;19952;-27
2022/10/18 03:49:50;;;;;;;22.55;18.95;;;17.50;99.90;;;;;;4591017;19;20515;-27
2022/10/18 03:51:22;;;;;;;22.83;19.75;;;17.50;99.90;;;;;;4592593;19;20092;-27
2022/10/18 03:52:54;;;;;;;23.05;20.50;;;17.50;99.90;;;;;;4591501;19;20508;-26
2022/10/18 03:54:25;;;;;;;24.52;20.75;;;17.50;99.90;;;;;;4590490;19;20061;-27
2022/10/18 03:55:56;;;;;;;22.83;20.40;;;17.50;99.90;;;;;;4592185;19;20022;-27
2022/10/18 03:57:27;;;;;;;23.17;19.70;;;17.50;99.90;;;;;;4590702;19;20496;-27
2022/10/18 03:58:58;;;;;;;24.25;19.20;;;17.50;99.90;;;;;;4590313;19;20010;-27
2022/10/18 04:00:30;;;;;;;22.58;20.15;;;17.50;99.90;;;;;;4593695;19;20014;-27
2022/10/18 04:02:01;;;;;;;22.75;19.55;;;17.50;99.90;;;;;;4591352;19;20012;-27
2022/10/18 04:03:32;;;;;;;22.55;20.15;;;17.50;99.90;;;;;;4590997;19;20107;-27
2022/10/18 04:05:04;;;;;;;21.20;18.90;;;17.50;99.90;;;;;;4591328;19;20026;-27
2022/10/18 04:06:35;;;;;;;21.77;19.48;;;17.40;99.90;;;;;;4588727;19;20027;-27
2022/10/18 04:08:06;;;;;;;21.52;19.17;;;17.50;99.90;;;;;;4590892;19;20010;-28
2022/10/18 04:09:37;;;;;;;23.63;19.75;;;17.50;99.90;;;;;;4591654;19;19995;-27
2022/10/18 04:11:09;;;;;;;23.02;19.98;;;17.50;99.90;;;;;;4590986;19;20044;-27
2022/10/18 04:12:40;;;;;;;22.30;19.90;;;17.50;99.90;;;;;;4591366;19;20017;-27
2022/10/18 04:14:12;;;;;;;20.90;18.02;;;17.50;99.90;;;;;;4591249;19;20010;-27
2022/10/18 04:15:43;;;;;;;23.20;20.35;;;17.50;99.90;;;;;;4590154;19;20018;-27
2022/10/18 04:17:14;;;;;;;20.35;18.27;;;17.50;99.90;;;;;;4591159;19;20489;-27
2022/10/18 04:18:45;;;;;;;21.15;18.83;;;17.50;99.90;;;;;;4590735;19;20102;-27
2022/10/18 04:20:16;;;;;;;23.42;20.23;;;17.50;99.90;;;;;;4591225;19;20018;-27
2022/10/18 04:21:47;;;;;;;25.95;19.85;;;17.50;99.90;;;;;;4589016;19;20074;-28
2022/10/18 04:23:19;;;;;;;22.52;20.08;;;17.50;99.90;;;;;;4591004;19;20010;-27
2022/10/18 04:24:52;;;;;;;23.33;20.90;;;17.40;99.90;;;;;;4591141;19;20015;-27
2022/10/18 04:26:23;;;;;;;24.35;21.77;;;17.50;99.90;;;;;;4588476;19;20456;-27
2022/10/18 04:27:54;;;;;;;23.77;21.33;;;17.40;99.90;;;;;;4589957;19;20014;-27
2022/10/18 04:29:25;;;;;;;24.73;22.10;;;17.40;99.90;;;;;;4588145;19;20043;-28
2022/10/18 04:30:56;;;;;;;23.10;20.65;;;17.50;99.90;;;;;;4590336;19;20010;-27
2022/10/18 04:32:28;;;;;;;23.17;20.67;;;17.50;99.90;;;;;;4590621;19;20484;-27
2022/10/18 04:33:59;;;;;;;24.02;19.50;;;17.40;99.90;;;;;;4590365;19;20017;-27
2022/10/18 04:35:30;;;;;;;23.52;19.50;;;17.50;99.90;;;;;;4589917;19;20010;-27
2022/10/18 04:37:01;;;;;;;22.60;20.20;;;17.50;99.90;;;;;;4590291;19;20463;-27
2022/10/18 04:38:32;;;;;;;21.48;19.20;;;17.60;99.90;;;;;;4589513;19;20021;-27
2022/10/18 04:40:04;;;;;;;22.15;19.83;;;17.60;99.90;;;;;;4590339;19;20080;-28
2022/10/18 04:41:35;;;;;;;21.38;19.02;;;17.60;99.90;;;;;;4590626;19;20019;-27
2022/10/18 04:43:06;;;;;;;23.33;20.40;;;17.70;99.90;;;;;;4591307;19;20010;-27
2022/10/18 04:44:37;;;;;;;22.15;19.75;;;17.70;99.90;;;;;;4590436;19;20021;-27
2022/10/18 04:46:09;;;;;;;;;;;17.70;99.90;;;;;;4591632;19;20508;-27
2022/10/18 04:47:40;;;;;;;22.00;19.02;;;17.70;99.90;;;;;;4590498;19;19915;-27
2022/10/18 04:49:11;;;;;;;20.55;18.02;;;17.70;99.90;;;;;;4589865;19;20018;-27
2022/10/18 04:50:42;;;;;;;22.02;18.80;;;17.80;99.90;;;;;;4592420;19;20066;-28
2022/10/18 04:52:13;;;;;;;21.48;19.05;;;17.80;99.90;;;;;;4590821;19;20011;-27
2022/10/18 04:53:44;;;;;;;21.50;19.27;;;17.80;99.90;;;;;;4590086;19;20027;-27
2022/10/18 04:55:15;;;;;;;23.17;19.77;;;17.90;99.90;;;;;;4590020;19;20474;-28
2022/10/18 04:56:46;;;;;;;20.98;18.70;;;17.90;99.90;;;;;;4588962;19;20062;-27
2022/10/18 04:58:18;;;;;;;19.65;17.60;;;18.00;99.90;;;;;;4589308;19;20450;-27
2022/10/18 04:59:49;;;;;;;22.25;19.75;;;18.00;99.90;;;;;;4589164;19;20476;-27
2022/10/18 05:01:21;;;;;;;22.55;19.40;;;18.10;99.90;;;;;;4587654;19;20112;-27
2022/10/18 05:02:57;;;;;;;22.42;19.60;;;18.10;99.90;;;;;;4588494;19;20030;-27
2022/10/18 05:04:29;;;;;;;21.75;18.52;;;18.10;99.90;;;;;;4589919;19;20034;-27
2022/10/18 05:06:00;;;;;;;22.92;19.33;;;18.20;99.90;;;;;;4590805;19;20007;-27
2022/10/18 05:07:31;;;;;;;23.60;19.92;;;18.20;99.90;;;;;;4588986;19;20031;-27
2022/10/18 05:09:02;;;;;;;24.35;19.33;;;18.20;99.90;;;;;;4589480;19;20019;-27
2022/10/18 05:10:33;;;;;;;25.20;20.00;;;18.20;99.90;;;;;;4589944;19;20015;-27
2022/10/18 05:12:04;;;;;;;23.75;19.60;;;18.30;99.90;;;;;;4589730;19;20078;-27
2022/10/18 05:16:18;;;;;;;30.15;26.55;;;16.50;99.90;;;;;;4586817;19;20021;-27
2022/10/18 05:17:50;;;;;;;31.58;28.05;;;15.50;99.90;;;;;;4588772;19;20078;-27
2022/10/18 05:19:22;;;;;;;30.23;26.98;;;15.30;99.90;;;;;;4586733;19;20015;-26
2022/10/18 05:20:53;;;;;;;29.65;26.48;;;15.20;99.90;;;;;;4587376;19;20511;-26
2022/10/18 05:22:24;;;;;;;29.80;26.55;;;15.10;99.90;;;;;;4587976;19;20007;-27
2022/10/18 05:23:55;;;;;;;30.98;27.58;;;15.10;99.90;;;;;;4586726;19;20021;-27
2022/10/18 05:25:27;;;;;;;31.35;26.73;;;15.10;99.90;;;;;;4587461;19;20046;-27
2022/10/18 05:26:58;;;;;;;32.67;28.10;;;15.10;99.90;;;;;;4587743;19;20041;-26
2022/10/18 05:28:29;;;;;;;31.38;27.58;;;15.10;99.90;;;;;;4587664;19;20022;-27
2022/10/18 05:30:03;;;;;;;31.33;27.83;;;15.00;99.90;;;;;;4588903;19;20366;-26
2022/10/18 05:31:34;;;;;;;32.88;29.38;;;15.00;99.90;;;;;;4590055;19;20014;-26
2022/10/18 05:33:05;;;;;;;33.75;29.23;;;15.00;99.90;;;;;;4591848;19;20011;-26
2022/10/18 05:34:36;;;;;;;32.92;29.25;;;15.10;99.90;;;;;;4593293;19;20022;-27
2022/10/18 05:36:08;;;;;;;31.98;28.00;;;15.10;99.90;;;;;;4594629;19;20011;-27
2022/10/18 05:37:39;;;;;;;;;;;15.10;99.90;;;;;;4594780;19;20017;-26
2022/10/18 05:39:10;;;;;;;30.42;26.77;;;15.10;99.90;;;;;;4595097;19;19926;-26
2022/10/18 05:40:41;;;;;;;31.20;27.63;;;15.10;99.90;;;;;;4594518;19;20014;-27
2022/10/18 05:42:13;;;;;;;31.05;27.85;;;15.10;99.90;;;;;;4595003;19;20022;-27
2022/10/18 05:43:44;;;;;;;31.23;27.88;;;15.10;99.90;;;;;;4595067;19;20456;-27
2022/10/18 05:45:15;;;;;;;29.83;26.63;;;15.10;99.90;;;;;;4594122;19;20014;-27
2022/10/18 05:46:46;;;;;;;31.67;28.25;;;15.10;99.90;;;;;;4594482;19;20015;-27
2022/10/18 05:48:17;;;;;;;31.20;27.88;;;15.10;99.90;;;;;;4594428;19;20484;-27
2022/10/18 05:49:48;;;;;;;34.10;29.38;;;15.10;99.90;;;;;;4593680;19;20014;-26
2022/10/18 05:51:20;;;;;;;30.95;27.73;;;15.10;99.90;;;;;;4593697;19;20488;-27
2022/10/18 05:52:51;;;;;;;32.65;28.17;;;15.10;99.90;;;;;;4594520;19;20017;-27
2022/10/18 05:54:22;;;;;;;30.45;27.17;;;15.10;99.90;;;;;;4591601;19;20015;-27
2022/10/18 05:55:53;;;;;;;30.42;27.02;;;15.10;99.90;;;;;;4592700;19;20007;-27
2022/10/18 05:57:24;;;;;;;32.63;28.80;;;15.10;99.90;;;;;;4591468;19;20009;-27
2022/10/18 05:58:55;;;;;;;32.75;29.33;;;15.10;99.90;;;;;;4592147;19;20007;-26
2022/10/18 06:00:27;;;;;;;30.80;27.15;;;15.10;99.90;;;;;;4592710;19;20011;-26
2022/10/18 06:01:58;;;;;;;32.72;28.92;;;15.10;99.90;;;;;;4591671;19;20425;-26
2022/10/18 06:03:29;;;;;;;33.42;29.92;;;15.10;99.90;;;;;;4591664;19;20039;-26
2022/10/18 06:05:01;;;;;;;31.52;28.17;;;15.20;99.90;;;;;;4590650;19;20014;-27
2022/10/18 06:06:32;;;;;;;32.47;28.58;;;15.10;99.90;;;;;;4591323;19;20093;-26
2022/10/18 06:08:03;;;;;;;31.90;28.35;;;15.20;99.90;;;;;;4590728;19;20013;-27
2022/10/18 06:09:37;;;;;;;35.20;28.30;;;15.20;99.90;;;;;;4590682;19;20015;-26
2022/10/18 06:11:13;;;;;;;33.88;30.25;;;15.20;99.90;;;;;;4591048;19;20019;-27
2022/10/18 06:12:48;;;;;;;33.85;29.85;;;15.20;99.90;;;;;;4591870;19;20014;-27
2022/10/18 06:14:19;;;;;;;34.05;30.30;;;15.20;99.90;;;;;;4590957;19;20404;-27
2022/10/18 06:15:55;;;;;;;34.83;29.77;;;15.20;99.90;;;;;;4590020;19;20416;-27
2022/10/18 06:17:26;;;;;;;35.08;30.52;;;15.20;99.90;;;;;;4591224;19;20014;-27
2022/10/18 06:18:58;;;;;;;35.72;31.40;;;15.20;99.90;;;;;;4591979;19;20015;-27
2022/10/18 06:20:30;;;;;;;34.38;30.67;;;15.20;99.90;;;;;;4590305;19;20010;-27
2022/10/18 06:22:01;;;;;;;36.00;31.98;;;15.20;99.90;;;;;;4591082;19;20021;-27
2022/10/18 06:23:32;;;;;;;34.95;31.10;;;15.30;99.90;;;;;;4591186;19;20007;-27
2022/10/18 06:25:04;;;;;;;39.00;33.45;;;15.20;99.90;;;;;;4591086;19;20438;-27
2022/10/18 06:26:35;;;;;;;36.88;32.78;;;15.30;99.90;;;;;;4591180;19;20011;-27
2022/10/18 06:28:07;;;;;;;;;;;15.30;99.90;;;;;;4592097;19;20126;-27
2022/10/18 06:29:38;;;;;;;43.83;36.88;;;15.30;99.90;;;;;;4591751;19;19919;-27
2022/10/18 06:31:10;;;;;;;47.95;39.53;;;15.30;99.90;;;;;;4591055;19;20018;-27
2022/10/18 06:32:41;;;;;;;45.45;38.47;;;15.30;99.90;;;;;;4590115;19;20009;-27
2022/10/18 06:34:12;;;;;;;48.70;39.55;;;15.30;99.90;;;;;;4591141;19;20019;-27
2022/10/18 06:35:53;;;;;;;41.78;37.25;;;15.30;99.90;;;;;;4591144;19;20013;-27
2022/10/18 06:37:25;;;;;;;41.53;36.55;;;15.40;99.90;;;;;;4590786;19;20449;-27
2022/10/18 06:38:56;;;;;;;40.03;35.75;;;15.40;99.90;;;;;;4591261;19;20011;-27
2022/10/18 06:40:29;;;;;;;37.70;33.65;;;15.40;99.90;;;;;;4593015;19;20034;-27
2022/10/18 06:42:03;;;;;;;38.65;33.40;;;15.40;99.90;;;;;;4592922;19;20025;-27
2022/10/18 06:43:34;;;;;;;42.13;36.30;;;15.40;99.90;;;;;;4592590;19;20017;-27
2022/10/18 06:45:07;;;;;;;40.40;34.35;;;15.40;99.90;;;;;;4591579;19;20488;-27
2022/10/18 06:46:42;;;;;;;38.25;33.75;;;15.40;99.90;;;;;;4592105;19;20037;-27
2022/10/18 06:48:13;;;;;;;42.65;37.95;;;15.50;99.90;;;;;;4593007;19;20462;-27
2022/10/18 06:49:44;;;;;;;43.15;37.58;;;15.50;99.90;;;;;;4592794;19;20011;-27
2022/10/18 06:51:17;;;;;;;49.65;40.00;;;15.50;99.90;;;;;;4592726;19;20015;-27
2022/10/18 06:52:49;;;;;;;48.70;38.40;;;15.50;99.90;;;;;;4592109;19;20014;-27
2022/10/18 06:54:21;;;;;;;50.08;40.08;;;15.50;99.90;;;;;;4592978;19;20030;-27
2022/10/18 06:55:57;;;;;;;52.03;42.08;;;15.60;99.90;;;;;;4591590;19;20073;-27
2022/10/18 06:57:28;;;;;;;51.15;42.17;;;15.60;99.90;;;;;;4591723;19;20013;-27
2022/10/18 06:58:59;;;;;;;54.42;44.90;;;15.60;99.90;;;;;;4593225;19;20023;-31
2022/10/18 07:00:31;;;;;;;55.08;44.05;;;15.60;99.90;;;;;;4591990;19;20007;-27
2022/10/18 07:02:02;;;;;;;44.88;36.90;;;15.60;99.90;;;;;;4591115;19;20034;-27
2022/10/18 07:03:36;;;;;;;49.05;40.67;;;15.70;99.90;;;;;;4592279;19;20403;-27
2022/10/18 07:05:08;;;;;;;46.30;38.28;;;15.70;99.90;;;;;;4593592;19;20464;-27
2022/10/18 07:06:39;;;;;;;43.22;36.83;;;15.70;99.90;;;;;;4592764;19;20014;-27
2022/10/18 07:08:10;;;;;;;48.15;39.33;;;15.70;99.90;;;;;;4592476;19;20393;-27
2022/10/18 07:09:44;;;;;;;44.35;36.88;;;15.70;99.90;;;;;;4592657;19;20018;-27
2022/10/18 07:11:22;;;;;;;48.35;39.42;;;15.70;99.90;;;;;;4591775;19;20015;-27
2022/10/18 07:12:54;;;;;;;42.67;35.90;;;15.70;99.90;;;;;;4591017;19;20015;-27
2022/10/18 07:14:25;;;;;;;43.22;34.90;;;15.70;99.90;;;;;;4590889;19;20019;-27
2022/10/18 07:16:08;;;;;;;40.75;33.38;;;15.80;99.90;;;;;;4589778;19;20464;-27
2022/10/18 07:17:40;;;;;;;40.60;32.38;;;16.10;99.90;;;;;;4592769;19;20011;-27
2022/10/18 07:19:13;;;;;;;37.60;30.73;;;16.30;99.90;;;;;;4591176;19;20026;-28
2022/10/18 07:20:44;;;;;;;39.45;30.30;;;16.50;99.90;;;;;;4591108;19;20022;-28
2022/10/18 07:22:16;;;;;;;36.72;29.13;;;16.70;99.90;;;;;;4591006;19;20074;-27
2022/10/18 07:23:47;;;;;;;40.25;31.30;;;16.80;99.90;;;;;;4590851;19;20014;-27
2022/10/18 07:25:18;;;;;;;40.83;31.83;;;16.90;99.90;;;;;;4589452;19;20527;-28
2022/10/18 07:26:49;;;;;;;44.60;33.65;;;17.00;99.90;;;;;;4589274;19;20475;-28
2022/10/18 07:28:21;;;;;;;43.38;32.50;;;17.10;99.90;;;;;;4592618;19;20031;-28
2022/10/18 07:29:52;;;;;;;42.58;33.33;;;17.10;99.90;;;;;;4592846;19;20002;-27
2022/10/18 07:31:23;;;;;;;45.95;34.17;;;17.20;99.90;;;;;;4592072;19;20018;-28
2022/10/18 07:32:55;;;;;;;42.00;30.90;;;17.20;99.90;;;;;;4590732;19;20341;-28
2022/10/18 07:34:27;;;;;;;35.70;28.48;;;17.30;99.90;;;;;;4589011;19;20048;-27
2022/10/18 07:36:02;;;;;;;38.42;28.80;;;17.30;99.90;;;;;;4589965;19;20025;-27
2022/10/18 07:37:33;;;;;;;43.20;32.80;;;17.30;99.90;;;;;;4588935;19;20023;-27
2022/10/18 07:39:04;;;;;;;54.78;40.17;;;17.30;99.90;;;;;;4591670;19;20006;-27
2022/10/18 07:40:35;;;;;;;60.80;41.53;;;17.40;99.90;;;;;;4592423;19;20045;-27
2022/10/18 07:42:07;;;;;;;57.55;43.03;;;17.40;99.90;;;;;;4590175;19;20014;-28
2022/10/18 07:43:42;;;;;;;52.53;38.10;;;17.40;99.90;;;;;;4589634;19;20022;-27
2022/10/18 07:45:14;;;;;;;39.92;31.48;;;17.40;99.90;;;;;;4588470;19;20038;-28
2022/10/18 07:46:45;;;;;;;;;;;17.50;99.90;;;;;;4589613;19;20019;-27
2022/10/18 07:48:17;;;;;;;31.70;26.80;;;17.40;99.90;;;;;;4588030;19;19918;-28
2022/10/18 07:49:49;;;;;;;34.58;27.35;;;17.50;99.90;;;;;;4587708;19;20017;-27
2022/10/18 07:51:21;;;;;;;29.58;26.42;;;17.50;99.90;;;;;;4587689;19;20014;-27
2022/10/18 07:52:52;;;;;;;34.97;27.77;;;17.50;99.90;;;;;;4590415;19;20082;-27
2022/10/18 07:54:23;;;;;;;30.90;26.85;;;17.60;99.90;;;;;;4589881;19;20426;-27
2022/10/18 07:55:58;;;;;;;27.63;24.52;;;17.60;99.90;;;;;;4589121;19;20052;-27
2022/10/18 07:57:29;;;;;;;28.80;25.70;;;17.60;99.90;;;;;;4586691;19;20074;-28
2022/10/18 07:59:00;;;;;;;33.65;29.98;;;17.60;99.90;;;;;;4588981;19;20014;-28
2022/10/18 08:00:32;;;;;;;41.05;36.38;;;17.60;99.90;;;;;;4588421;19;20464;-28